createdAt,value
2022-09-15T00:00:13.805Z,13.80
2022-09-15T00:01:13.820Z,13.80
2022-09-15T00:02:14.137Z,13.80
2022-09-15T00:03:13.587Z,13.90
2022-09-15T00:04:13.781Z,13.80
2022-09-15T00:05:13.792Z,13.90
2022-09-15T00:06:13.694Z,13.80
2022-09-15T00:07:13.715Z,13.80
2022-09-15T00:08:13.714Z,13.90
2022-09-15T00:09:13.682Z,13.80
2022-09-15T00:10:13.630Z,13.80
2022-09-15T00:11:13.698Z,13.80
2022-09-15T00:12:14.046Z,13.90
2022-09-15T00:13:13.053Z,13.80
2022-09-15T00:14:12.883Z,13.80
2022-09-15T00:15:13.916Z,13.80
2022-09-15T00:16:15.223Z,13.80
2022-09-15T00:17:13.705Z,13.90
2022-09-15T00:18:13.780Z,13.90
2022-09-15T00:19:13.698Z,13.90
2022-09-15T00:20:13.839Z,13.90
2022-09-15T00:21:14.015Z,13.90
2022-09-15T00:22:13.493Z,13.80
2022-09-15T00:23:13.894Z,13.90
2022-09-15T00:24:13.129Z,13.80
2022-09-15T00:25:13.169Z,13.80
2022-09-15T00:26:13.300Z,13.70
2022-09-15T00:27:13.147Z,13.80
2022-09-15T00:28:14.532Z,13.70
2022-09-15T00:29:13.687Z,13.80
2022-09-15T00:30:13.533Z,13.70
2022-09-15T00:31:13.619Z,13.80
2022-09-15T00:32:13.498Z,13.80
2022-09-15T00:33:14.166Z,13.80
2022-09-15T00:34:13.094Z,13.70
2022-09-15T00:35:12.985Z,13.80
2022-09-15T00:36:13.024Z,13.80
2022-09-15T00:37:13.114Z,13.80
2022-09-15T00:38:13.026Z,13.80
2022-09-15T00:39:12.940Z,13.80
2022-09-15T00:40:13.017Z,13.70
2022-09-15T00:41:13.117Z,13.80
2022-09-15T00:42:13.174Z,13.80
2022-09-15T00:43:13.341Z,13.70
2022-09-15T00:44:13.215Z,13.80
2022-09-15T00:45:14.341Z,13.80
2022-09-15T00:46:13.387Z,13.80
2022-09-15T00:47:19.723Z,13.70
2022-09-15T00:48:13.029Z,13.70
2022-09-15T00:49:12.859Z,13.80
2022-09-15T00:50:13.932Z,13.70
2022-09-15T00:51:12.904Z,13.60
2022-09-15T00:52:13.170Z,13.70
2022-09-15T00:53:13.604Z,13.60
2022-09-15T00:54:13.521Z,13.70
2022-09-15T00:55:13.662Z,13.60
2022-09-15T00:56:13.588Z,13.70
2022-09-15T00:57:13.521Z,13.70
2022-09-15T00:58:13.515Z,13.60
2022-09-15T00:59:13.893Z,13.60
2022-09-15T01:00:12.942Z,13.60
2022-09-15T01:01:13.212Z,13.60
2022-09-15T01:02:13.356Z,13.70
2022-09-15T01:03:13.777Z,13.60
2022-09-15T01:04:13.829Z,13.60
2022-09-15T01:05:13.692Z,13.60
2022-09-15T01:06:13.532Z,13.60
2022-09-15T01:07:13.552Z,13.80
2022-09-15T01:08:13.433Z,13.70
2022-09-15T01:09:13.382Z,13.50
2022-09-15T01:10:13.433Z,13.50
2022-09-15T01:11:13.725Z,13.40
2022-09-15T01:12:17.361Z,13.40
2022-09-15T01:13:13.465Z,13.40
2022-09-15T01:14:13.462Z,13.40
2022-09-15T01:15:13.848Z,13.50
2022-09-15T01:16:14.021Z,13.50
2022-09-15T01:17:13.316Z,13.40
2022-09-15T01:18:13.273Z,13.40
2022-09-15T01:19:13.301Z,13.30
2022-09-15T01:20:13.274Z,13.40
2022-09-15T01:21:13.407Z,13.40
2022-09-15T01:22:13.826Z,13.50
2022-09-15T01:23:13.731Z,13.50
2022-09-15T01:24:13.601Z,13.40
2022-09-15T01:25:13.685Z,13.40
2022-09-15T01:26:13.671Z,13.50
2022-09-15T01:27:30.648Z,13.60
2022-09-15T01:28:14.692Z,13.40
2022-09-15T01:29:14.261Z,13.50
2022-09-15T01:30:13.282Z,13.40
2022-09-15T01:31:13.352Z,13.40
2022-09-15T01:32:13.638Z,13.40
2022-09-15T01:33:13.682Z,13.50
2022-09-15T01:34:13.839Z,13.40
2022-09-15T01:35:13.868Z,13.40
2022-09-15T01:36:14.202Z,13.30
2022-09-15T01:37:13.861Z,13.40
2022-09-15T01:38:14.164Z,13.20
2022-09-15T01:39:13.287Z,13.30
2022-09-15T01:40:13.268Z,13.30
2022-09-15T01:41:13.501Z,13.20
2022-09-15T01:42:13.569Z,13.30
2022-09-15T01:43:13.670Z,13.40
2022-09-15T01:44:13.772Z,13.30
2022-09-15T01:45:13.715Z,13.30
2022-09-15T01:46:13.682Z,13.30
2022-09-15T01:47:13.877Z,13.30
2022-09-15T01:48:13.927Z,13.30
2022-09-15T01:49:13.100Z,13.40
2022-09-15T01:50:12.974Z,13.40
2022-09-15T01:51:13.199Z,13.20
2022-09-15T01:52:13.475Z,13.20
2022-09-15T01:53:18.581Z,13.20
2022-09-15T01:54:13.486Z,13.30
2022-09-15T01:55:13.525Z,13.30
2022-09-15T01:56:18.545Z,13.20
2022-09-15T01:57:13.677Z,13.20
2022-09-15T01:58:13.658Z,13.20
2022-09-15T01:59:14.001Z,13.20
2022-09-15T02:00:12.873Z,13.30
2022-09-15T02:01:14.134Z,13.30
2022-09-15T02:02:13.431Z,13.30
2022-09-15T02:03:13.428Z,13.20
2022-09-15T02:04:13.341Z,13.30
2022-09-15T02:05:13.434Z,13.20
2022-09-15T02:06:13.829Z,13.20
2022-09-15T02:07:13.922Z,13.20
2022-09-15T02:08:12.807Z,13.20
2022-09-15T02:09:13.676Z,13.30
2022-09-15T02:10:14.185Z,13.20
2022-09-15T02:11:13.283Z,13.30
2022-09-15T02:12:13.424Z,13.30
2022-09-15T02:13:13.465Z,13.30
2022-09-15T02:14:13.462Z,13.20
2022-09-15T02:15:13.643Z,13.30
2022-09-15T02:16:13.666Z,13.30
2022-09-15T02:17:13.612Z,13.30
2022-09-15T02:18:13.565Z,13.40
2022-09-15T02:19:13.525Z,13.40
2022-09-15T02:20:13.567Z,13.40
2022-09-15T02:21:13.621Z,13.30
2022-09-15T02:22:13.415Z,13.40
2022-09-15T02:23:13.412Z,13.30
2022-09-15T02:24:13.447Z,13.20
2022-09-15T02:25:13.342Z,13.30
2022-09-15T02:26:16.212Z,13.30
2022-09-15T02:27:13.046Z,13.30
2022-09-15T02:28:13.649Z,13.40
2022-09-15T02:29:13.626Z,13.40
2022-09-15T02:30:13.763Z,13.30
2022-09-15T02:31:14.502Z,13.40
2022-09-15T02:32:13.575Z,13.40
2022-09-15T02:33:14.991Z,13.40
2022-09-15T02:34:13.111Z,13.40
2022-09-15T02:35:13.012Z,13.40
2022-09-15T02:36:13.083Z,13.50
2022-09-15T02:37:13.317Z,13.30
2022-09-15T02:38:13.183Z,13.30
2022-09-15T02:39:15.712Z,13.40
2022-09-15T02:40:14.015Z,13.40
2022-09-15T02:41:13.151Z,13.40
2022-09-15T02:42:13.275Z,13.50
2022-09-15T02:43:13.559Z,13.40
2022-09-15T02:44:13.571Z,13.50
2022-09-15T02:45:13.436Z,13.40
2022-09-15T02:46:13.764Z,13.40
2022-09-15T02:47:13.799Z,13.40
2022-09-15T02:48:16.249Z,13.60
2022-09-15T02:49:21.427Z,13.60
2022-09-15T02:50:13.741Z,13.50
2022-09-15T02:51:13.715Z,13.50
2022-09-15T02:52:13.523Z,13.60
2022-09-15T02:53:13.745Z,13.60
2022-09-15T02:54:13.969Z,13.50
2022-09-15T02:55:12.894Z,13.50
2022-09-15T02:56:12.923Z,13.50
2022-09-15T02:57:12.925Z,13.60
2022-09-15T02:58:12.809Z,13.60
2022-09-15T02:59:14.125Z,13.70
2022-09-15T03:00:13.085Z,13.60
2022-09-15T03:01:13.219Z,13.50
2022-09-15T03:02:13.626Z,13.60
2022-09-15T03:03:13.639Z,13.70
2022-09-15T03:04:13.641Z,13.70
2022-09-15T03:05:13.722Z,13.60
2022-09-15T03:06:14.192Z,13.60
2022-09-15T03:07:13.277Z,13.50
2022-09-15T03:08:13.244Z,13.60
2022-09-15T03:09:13.211Z,13.60
2022-09-15T03:10:13.491Z,13.60
2022-09-15T03:11:13.770Z,13.60
2022-09-15T03:12:13.834Z,13.70
2022-09-15T03:13:13.916Z,13.60
2022-09-15T03:14:12.904Z,13.60
2022-09-15T03:15:12.846Z,13.70
2022-09-15T03:16:13.940Z,13.70
2022-09-15T03:17:12.988Z,13.60
2022-09-15T03:18:13.150Z,13.60
2022-09-15T03:19:13.100Z,13.70
2022-09-15T03:20:12.956Z,13.60
2022-09-15T03:21:13.185Z,13.50
2022-09-15T03:22:13.520Z,13.70
2022-09-15T03:23:13.508Z,13.60
2022-09-15T03:24:13.749Z,13.70
2022-09-15T03:25:13.699Z,13.60
2022-09-15T03:26:13.654Z,13.60
2022-09-15T03:27:13.650Z,13.60
2022-09-15T03:28:13.653Z,13.70
2022-09-15T03:29:13.606Z,13.60
2022-09-15T03:30:13.933Z,13.70
2022-09-15T03:31:13.087Z,13.70
2022-09-15T03:32:13.481Z,13.70
2022-09-15T03:33:13.467Z,13.70
2022-09-15T03:34:13.369Z,13.70
2022-09-15T03:35:13.393Z,13.70
2022-09-15T03:36:13.744Z,13.60
2022-09-15T03:37:14.552Z,13.70
2022-09-15T03:38:13.764Z,13.80
2022-09-15T03:39:14.051Z,13.80
2022-09-15T03:40:13.079Z,13.70
2022-09-15T03:41:12.975Z,13.70
2022-09-15T03:42:12.884Z,13.70
2022-09-15T03:43:16.628Z,13.80
2022-09-15T03:44:13.539Z,13.60
2022-09-15T03:45:13.426Z,13.60
2022-09-15T03:46:13.306Z,13.70
2022-09-15T03:47:13.221Z,13.70
2022-09-15T03:48:13.337Z,13.70
2022-09-15T03:49:13.407Z,13.70
2022-09-15T03:50:13.682Z,13.70
2022-09-15T03:51:13.790Z,13.80
2022-09-15T03:52:14.124Z,13.90
2022-09-15T03:53:14.079Z,14.00
2022-09-15T03:54:12.961Z,14.00
2022-09-15T03:55:13.037Z,13.90
2022-09-15T03:56:13.732Z,13.90
2022-09-15T03:57:13.963Z,13.80
2022-09-15T03:58:12.861Z,13.90
2022-09-15T03:59:14.081Z,13.90
2022-09-15T04:00:13.292Z,13.90
2022-09-15T04:01:13.693Z,14.00
2022-09-15T04:02:13.941Z,13.90
2022-09-15T04:03:12.973Z,13.80
2022-09-15T04:04:13.368Z,13.90
2022-09-15T04:05:13.458Z,14.00
2022-09-15T04:06:13.850Z,13.90
2022-09-15T04:07:13.838Z,13.90
2022-09-15T04:08:13.924Z,13.80
2022-09-15T04:09:12.856Z,13.90
2022-09-15T04:10:13.919Z,13.90
2022-09-15T04:11:12.796Z,13.80
2022-09-15T04:12:13.807Z,13.90
2022-09-15T04:13:13.710Z,13.90
2022-09-15T04:14:13.756Z,13.80
2022-09-15T04:15:13.901Z,13.90
2022-09-15T04:16:13.019Z,14.00
2022-09-15T04:17:13.191Z,13.90
2022-09-15T04:18:13.015Z,13.90
2022-09-15T04:19:13.225Z,13.90
2022-09-15T04:20:13.277Z,13.90
2022-09-15T04:21:13.311Z,14.00
2022-09-15T04:22:16.989Z,13.90
2022-09-15T04:23:13.703Z,14.00
2022-09-15T04:24:13.567Z,13.90
2022-09-15T04:25:13.861Z,13.90
2022-09-15T04:26:13.727Z,14.00
2022-09-15T04:27:13.877Z,13.90
2022-09-15T04:28:14.002Z,14.00
2022-09-15T04:29:13.325Z,14.10
2022-09-15T04:30:13.269Z,14.00
2022-09-15T04:31:13.459Z,13.90
2022-09-15T04:32:13.637Z,14.00
2022-09-15T04:33:13.600Z,14.00
2022-09-15T04:34:13.512Z,14.10
2022-09-15T04:35:13.563Z,14.00
2022-09-15T04:36:13.556Z,14.00
2022-09-15T04:37:13.633Z,13.90
2022-09-15T04:38:13.601Z,13.80
2022-09-15T04:39:13.732Z,13.80
2022-09-15T04:40:13.941Z,14.00
2022-09-15T04:41:13.208Z,14.10
2022-09-15T04:42:13.197Z,14.10
2022-09-15T04:43:13.095Z,14.10
2022-09-15T04:44:12.946Z,14.20
2022-09-15T04:45:12.945Z,14.30
2022-09-15T04:46:12.970Z,14.30
2022-09-15T04:47:13.017Z,14.10
2022-09-15T04:48:12.897Z,14.10
2022-09-15T04:49:12.940Z,14.10
2022-09-15T04:50:12.930Z,14.10
2022-09-15T04:51:12.920Z,14.00
2022-09-15T04:52:13.448Z,14.20
2022-09-15T04:53:13.612Z,14.20
2022-09-15T04:54:13.798Z,14.20
2022-09-15T04:55:12.772Z,14.20
2022-09-15T04:56:14.004Z,14.20
2022-09-15T04:57:13.171Z,14.00
2022-09-15T04:58:13.308Z,14.00
2022-09-15T04:59:13.221Z,14.20
2022-09-15T05:00:13.165Z,14.40
2022-09-15T05:01:13.368Z,14.20
2022-09-15T05:02:13.820Z,14.30
2022-09-15T05:03:13.785Z,14.40
2022-09-15T05:04:13.725Z,14.40
2022-09-15T05:05:13.604Z,14.20
2022-09-15T05:06:13.433Z,14.40
2022-09-15T05:07:13.252Z,14.20
2022-09-15T05:08:13.259Z,14.30
2022-09-15T05:09:13.496Z,14.30
2022-09-15T05:10:13.443Z,14.40
2022-09-15T05:11:13.322Z,14.30
2022-09-15T05:12:13.248Z,14.10
2022-09-15T05:13:13.132Z,14.20
2022-09-15T05:14:13.100Z,14.30
2022-09-15T05:15:12.972Z,14.40
2022-09-15T05:16:12.830Z,14.40
2022-09-15T05:17:15.066Z,14.10
2022-09-15T05:18:13.124Z,14.10
2022-09-15T05:19:13.039Z,14.00
2022-09-15T05:20:12.935Z,14.00
2022-09-15T05:21:12.949Z,13.90
2022-09-15T05:22:12.925Z,14.00
2022-09-15T05:23:12.957Z,13.90
2022-09-15T05:24:12.871Z,14.00
2022-09-15T05:25:13.931Z,14.00
2022-09-15T05:26:12.887Z,14.00
2022-09-15T05:27:14.198Z,14.00
2022-09-15T05:28:13.066Z,13.90
2022-09-15T05:29:13.088Z,14.00
2022-09-15T05:30:36.645Z,13.90
2022-09-15T05:31:12.928Z,14.10
2022-09-15T05:32:13.112Z,14.20
2022-09-15T05:33:13.350Z,14.20
2022-09-15T05:34:13.421Z,14.30
2022-09-15T05:35:13.383Z,14.10
2022-09-15T05:36:13.323Z,14.30
2022-09-15T05:37:13.914Z,14.40
2022-09-15T05:38:13.250Z,14.30
2022-09-15T05:39:13.260Z,14.20
2022-09-15T05:40:13.607Z,14.20
2022-09-15T05:41:13.638Z,14.30
2022-09-15T05:42:14.049Z,14.10
2022-09-15T05:43:13.769Z,14.30
2022-09-15T05:44:14.339Z,14.40
2022-09-15T05:45:18.514Z,14.50
2022-09-15T05:46:13.875Z,14.50
2022-09-15T05:47:13.060Z,14.20
2022-09-15T05:48:13.209Z,14.20
2022-09-15T05:49:13.522Z,14.30
2022-09-15T05:50:13.794Z,14.20
2022-09-15T05:51:13.658Z,14.20
2022-09-15T05:52:13.863Z,14.40
2022-09-15T05:53:13.833Z,14.50
2022-09-15T05:54:13.938Z,14.50
2022-09-15T05:55:13.515Z,14.60
2022-09-15T05:56:13.367Z,14.60
2022-09-15T05:57:13.247Z,14.50
2022-09-15T05:58:13.467Z,14.50
2022-09-15T05:59:13.797Z,14.40
2022-09-15T06:00:13.997Z,14.70
2022-09-15T06:01:13.297Z,14.60
2022-09-15T06:02:13.391Z,14.60
2022-09-15T06:03:13.571Z,14.60
2022-09-15T06:04:13.491Z,14.70
2022-09-15T06:05:13.548Z,14.80
2022-09-15T06:06:13.507Z,14.60
2022-09-15T06:07:13.546Z,14.70
2022-09-15T06:08:13.576Z,14.70
2022-09-15T06:09:18.523Z,14.70
2022-09-15T06:10:13.473Z,14.70
2022-09-15T06:11:13.572Z,14.80
2022-09-15T06:12:13.453Z,14.80
2022-09-15T06:13:13.307Z,14.80
2022-09-15T06:14:13.486Z,15.00
2022-09-15T06:15:14.747Z,14.70
2022-09-15T06:16:14.127Z,14.80
2022-09-15T06:17:14.952Z,14.60
2022-09-15T06:18:18.997Z,14.80
2022-09-15T06:19:12.939Z,14.60
2022-09-15T06:20:18.909Z,14.70
2022-09-15T06:21:13.745Z,14.70
2022-09-15T06:22:15.074Z,14.90
2022-09-15T06:23:13.667Z,15.00
2022-09-15T06:24:13.613Z,14.80
2022-09-15T06:25:13.478Z,14.90
2022-09-15T06:26:24.538Z,14.80
2022-09-15T06:27:13.865Z,14.60
2022-09-15T06:28:14.042Z,14.80
2022-09-15T06:29:13.026Z,14.70
2022-09-15T06:30:13.077Z,14.60
2022-09-15T06:31:13.479Z,14.80
2022-09-15T06:32:13.638Z,14.60
2022-09-15T06:33:13.750Z,14.90
2022-09-15T06:34:13.644Z,15.00
2022-09-15T06:35:14.219Z,15.20
2022-09-15T06:36:13.240Z,15.10
2022-09-15T06:37:13.389Z,15.20
2022-09-15T06:38:13.778Z,15.20
2022-09-15T06:39:13.738Z,15.30
2022-09-15T06:40:14.105Z,15.20
2022-09-15T06:41:13.316Z,15.20
2022-09-15T06:42:14.002Z,15.10
2022-09-15T06:43:13.122Z,15.10
2022-09-15T06:44:13.291Z,15.20
2022-09-15T06:45:14.470Z,15.30
2022-09-15T06:46:13.710Z,15.30
2022-09-15T06:47:13.613Z,15.30
2022-09-15T06:48:24.333Z,15.30
2022-09-15T06:49:13.089Z,15.30
2022-09-15T06:50:13.201Z,15.30
2022-09-15T06:51:13.395Z,15.60
2022-09-15T06:52:13.763Z,15.60
2022-09-15T06:53:13.591Z,15.70
2022-09-15T06:54:13.616Z,15.60
2022-09-15T06:55:13.689Z,15.60
2022-09-15T06:56:13.600Z,15.40
2022-09-15T06:57:13.536Z,15.40
2022-09-15T06:58:13.421Z,15.50
2022-09-15T06:59:13.739Z,15.30
2022-09-15T07:00:13.960Z,15.50
2022-09-15T07:01:12.958Z,15.60
2022-09-15T07:02:12.986Z,15.60
2022-09-15T07:03:13.270Z,15.70
2022-09-15T07:04:13.710Z,15.40
2022-09-15T07:05:13.795Z,15.70
2022-09-15T07:06:14.062Z,15.80
2022-09-15T07:07:13.137Z,15.50
2022-09-15T07:08:13.263Z,15.70
2022-09-15T07:09:13.599Z,15.90
2022-09-15T07:10:14.086Z,15.90
2022-09-15T07:11:13.087Z,15.90
2022-09-15T07:12:13.035Z,15.70
2022-09-15T07:13:13.040Z,15.80
2022-09-15T07:14:13.056Z,15.50
2022-09-15T07:15:13.623Z,15.60
2022-09-15T07:16:13.761Z,15.70
2022-09-15T07:17:13.714Z,15.70
2022-09-15T07:18:13.739Z,15.80
2022-09-15T07:19:13.728Z,15.80
2022-09-15T07:20:13.960Z,15.80
2022-09-15T07:21:12.905Z,16.00
2022-09-15T07:22:13.419Z,16.00
2022-09-15T07:23:14.642Z,15.50
2022-09-15T07:24:13.867Z,15.80
2022-09-15T07:25:13.886Z,16.00
2022-09-15T07:26:13.116Z,16.10
2022-09-15T07:27:13.364Z,16.10
2022-09-15T07:28:13.807Z,16.00
2022-09-15T07:29:13.980Z,16.10
2022-09-15T07:30:12.979Z,15.70
2022-09-15T07:31:14.218Z,15.90
2022-09-15T07:32:13.647Z,15.60
2022-09-15T07:33:14.155Z,15.60
2022-09-15T07:34:12.996Z,15.60
2022-09-15T07:35:13.224Z,15.60
2022-09-15T07:36:13.376Z,15.40
2022-09-15T07:37:13.612Z,15.50
2022-09-15T07:38:14.029Z,15.70
2022-09-15T07:39:13.392Z,15.70
2022-09-15T07:40:13.570Z,15.70
2022-09-15T07:41:14.216Z,15.70
2022-09-15T07:42:18.496Z,16.00
2022-09-15T07:43:13.366Z,15.90
2022-09-15T07:44:13.344Z,15.70
2022-09-15T07:45:13.395Z,15.70
2022-09-15T07:46:13.619Z,16.00
2022-09-15T07:47:14.011Z,15.80
2022-09-15T07:48:13.545Z,15.70
2022-09-15T07:49:18.747Z,15.80
2022-09-15T07:50:14.026Z,16.00
2022-09-15T07:51:13.301Z,15.90
2022-09-15T07:52:13.486Z,15.80
2022-09-15T07:53:13.437Z,16.10
2022-09-15T07:54:16.268Z,15.80
2022-09-15T07:55:13.688Z,16.00
2022-09-15T07:56:13.890Z,16.20
2022-09-15T07:57:14.162Z,16.40
2022-09-15T07:58:13.159Z,16.40
2022-09-15T07:59:13.174Z,16.10
2022-09-15T08:00:13.412Z,16.30
2022-09-15T08:01:13.528Z,16.60
2022-09-15T08:02:14.087Z,16.60
2022-09-15T08:03:13.833Z,16.70
2022-09-15T08:04:13.753Z,16.80
2022-09-15T08:05:13.920Z,17.20
2022-09-15T08:06:13.063Z,17.00
2022-09-15T08:07:13.131Z,16.80
2022-09-15T08:08:13.067Z,16.70
2022-09-15T08:09:13.026Z,16.40
2022-09-15T08:10:12.862Z,16.30
2022-09-15T08:11:18.265Z,16.40
2022-09-15T08:12:13.773Z,16.40
2022-09-15T08:13:13.858Z,16.50
2022-09-15T08:14:13.783Z,16.40
2022-09-15T08:15:13.937Z,16.70
2022-09-15T08:16:12.960Z,16.60
2022-09-15T08:17:12.830Z,16.60
2022-09-15T08:18:13.867Z,16.80
2022-09-15T08:19:14.058Z,17.20
2022-09-15T08:20:13.153Z,16.90
2022-09-15T08:21:13.088Z,16.70
2022-09-15T08:22:14.199Z,16.50
2022-09-15T08:23:13.370Z,16.80
2022-09-15T08:24:13.771Z,16.60
2022-09-15T08:25:13.665Z,17.10
2022-09-15T08:26:14.346Z,16.80
2022-09-15T08:27:13.855Z,16.90
2022-09-15T08:28:13.797Z,17.20
2022-09-15T08:29:14.101Z,17.00
2022-09-15T08:30:13.228Z,17.10
2022-09-15T08:31:13.201Z,16.70
2022-09-15T08:32:13.181Z,16.70
2022-09-15T08:33:13.054Z,16.60
2022-09-15T08:34:13.000Z,16.90
2022-09-15T08:35:12.857Z,17.10
2022-09-15T08:36:13.898Z,17.20
2022-09-15T08:37:13.185Z,17.50
2022-09-15T08:38:13.510Z,17.30
2022-09-15T08:39:13.689Z,17.20
2022-09-15T08:40:13.946Z,17.00
2022-09-15T08:41:18.050Z,17.40
2022-09-15T08:42:13.357Z,17.30
2022-09-15T08:43:13.242Z,17.30
2022-09-15T08:44:18.157Z,17.00
2022-09-15T08:45:14.321Z,16.70
2022-09-15T08:46:18.746Z,16.60
2022-09-15T08:47:13.844Z,17.10
2022-09-15T08:48:14.150Z,17.20
2022-09-15T08:49:16.830Z,17.00
2022-09-15T08:50:13.411Z,17.10
2022-09-15T08:51:13.278Z,17.10
2022-09-15T08:52:13.201Z,17.30
2022-09-15T08:53:13.253Z,17.20
2022-09-15T08:54:13.245Z,17.20
2022-09-15T08:55:13.365Z,17.10
2022-09-15T08:56:13.386Z,16.90
2022-09-15T08:57:13.416Z,17.10
2022-09-15T08:58:13.880Z,17.30
2022-09-15T08:59:15.572Z,17.60
2022-09-15T09:00:13.586Z,17.40
2022-09-15T09:01:13.537Z,17.60
2022-09-15T09:02:13.526Z,17.20
2022-09-15T09:03:13.672Z,17.20
2022-09-15T09:04:17.549Z,17.00
2022-09-15T09:05:13.065Z,17.20
2022-09-15T09:06:13.286Z,17.30
2022-09-15T09:07:13.304Z,17.40
2022-09-15T09:08:13.306Z,17.80
2022-09-15T09:09:13.434Z,18.00
2022-09-15T09:10:13.769Z,18.30
2022-09-15T09:11:13.765Z,18.30
2022-09-15T09:12:13.651Z,18.40
2022-09-15T09:13:13.632Z,18.70
2022-09-15T09:14:13.427Z,19.00
2022-09-15T09:15:13.614Z,19.10
2022-09-15T09:16:14.062Z,19.30
2022-09-15T09:17:14.138Z,18.80
2022-09-15T09:18:13.612Z,19.00
2022-09-15T09:19:13.517Z,19.10
2022-09-15T09:20:13.689Z,18.60
2022-09-15T09:21:13.678Z,18.60
2022-09-15T09:22:13.906Z,18.40
2022-09-15T09:23:12.762Z,18.10
2022-09-15T09:24:14.070Z,18.20
2022-09-15T09:25:26.803Z,18.20
2022-09-15T09:26:13.086Z,17.80
2022-09-15T09:27:12.982Z,17.40
2022-09-15T09:28:12.972Z,17.20
2022-09-15T09:29:13.072Z,17.90
2022-09-15T09:30:13.232Z,18.00
2022-09-15T09:31:15.040Z,18.00
2022-09-15T09:32:12.954Z,17.70
2022-09-15T09:33:13.090Z,18.10
2022-09-15T09:34:13.214Z,18.40
2022-09-15T09:35:13.177Z,18.10
2022-09-15T09:36:13.580Z,18.50
2022-09-15T09:37:13.691Z,18.80
2022-09-15T09:38:13.719Z,18.10
2022-09-15T09:39:13.642Z,18.40
2022-09-15T09:40:13.779Z,18.20
2022-09-15T09:41:13.940Z,18.30
2022-09-15T09:42:12.952Z,18.30
2022-09-15T09:43:13.002Z,18.20
2022-09-15T09:44:13.008Z,18.30
2022-09-15T09:45:14.486Z,18.00
2022-09-15T09:46:13.647Z,18.50
2022-09-15T09:47:14.465Z,18.90
2022-09-15T09:48:13.682Z,19.20
2022-09-15T09:49:15.119Z,19.50
2022-09-15T09:50:13.444Z,19.50
2022-09-15T09:51:13.467Z,18.30
2022-09-15T09:52:13.546Z,17.90
2022-09-15T09:53:30.533Z,18.20
2022-09-15T09:54:14.140Z,18.40
2022-09-15T09:56:15.463Z,18.20
2022-09-15T09:57:39.921Z,17.90
2022-09-15T09:58:14.383Z,18.00
2022-09-15T09:59:13.459Z,18.20
2022-09-15T10:00:13.367Z,18.10
2022-09-15T10:01:14.912Z,18.30
2022-09-15T10:02:13.048Z,18.10
2022-09-15T10:03:13.323Z,18.30
2022-09-15T10:04:15.745Z,18.50
2022-09-15T10:05:13.737Z,18.70
2022-09-15T10:06:13.938Z,18.10
2022-09-15T10:07:13.351Z,18.00
2022-09-15T10:08:13.325Z,17.70
2022-09-15T10:09:13.322Z,17.40
2022-09-15T10:10:13.328Z,17.70
2022-09-15T10:11:14.398Z,17.50
2022-09-15T10:12:13.301Z,17.90
2022-09-15T10:13:13.279Z,17.50
2022-09-15T10:14:13.540Z,17.30
2022-09-15T10:15:13.705Z,17.30
2022-09-15T10:16:13.814Z,17.70
2022-09-15T10:17:13.800Z,18.10
2022-09-15T10:18:14.120Z,18.30
2022-09-15T10:19:13.254Z,17.90
2022-09-15T10:20:13.395Z,17.90
2022-09-15T10:21:13.587Z,17.90
2022-09-15T10:22:15.356Z,17.90
2022-09-15T10:23:13.537Z,17.70
2022-09-15T10:24:16.387Z,18.00
2022-09-15T10:25:14.540Z,18.00
2022-09-15T10:26:13.617Z,18.60
2022-09-15T10:27:13.775Z,18.50
2022-09-15T10:28:14.226Z,17.90
2022-09-15T10:29:13.294Z,17.60
2022-09-15T10:30:13.442Z,18.00
2022-09-15T10:31:13.548Z,17.80
2022-09-15T10:32:13.479Z,18.10
2022-09-15T10:33:13.355Z,17.90
2022-09-15T10:34:13.250Z,17.70
2022-09-15T10:35:13.188Z,18.30
2022-09-15T10:36:13.398Z,18.50
2022-09-15T10:37:13.695Z,18.20
2022-09-15T10:38:13.756Z,18.00
2022-09-15T10:39:13.850Z,17.90
2022-09-15T10:40:13.894Z,17.80
2022-09-15T10:41:12.828Z,17.70
2022-09-15T10:42:14.017Z,17.50
2022-09-15T10:43:12.902Z,17.60
2022-09-15T10:44:14.702Z,17.40
2022-09-15T10:45:13.780Z,17.20
2022-09-15T10:46:13.873Z,17.50
2022-09-15T10:47:14.549Z,17.30
2022-09-15T10:48:13.833Z,17.40
2022-09-15T10:49:13.803Z,17.20
2022-09-15T10:50:14.188Z,17.50
2022-09-15T10:51:13.444Z,17.60
2022-09-15T10:52:13.543Z,17.20
2022-09-15T10:53:14.096Z,17.30
2022-09-15T10:54:12.967Z,17.30
2022-09-15T10:55:12.897Z,17.00
2022-09-15T10:56:13.021Z,17.00
2022-09-15T10:57:13.094Z,17.20
2022-09-15T10:58:13.374Z,17.00
2022-09-15T10:59:13.441Z,16.60
2022-09-15T11:00:13.814Z,16.10
2022-09-15T11:01:14.376Z,15.50
2022-09-15T11:02:13.809Z,15.50
2022-09-15T11:03:12.735Z,15.40
2022-09-15T11:04:13.728Z,15.50
2022-09-15T11:05:13.743Z,15.40
2022-09-15T11:06:17.569Z,15.20
2022-09-15T11:07:14.022Z,15.00
2022-09-15T11:08:13.238Z,15.20
2022-09-15T11:09:13.143Z,15.50
2022-09-15T11:10:13.182Z,15.80
2022-09-15T11:11:13.066Z,15.80
2022-09-15T11:12:13.172Z,15.40
2022-09-15T11:13:13.184Z,15.50
2022-09-15T11:14:13.222Z,15.30
2022-09-15T11:15:13.096Z,15.70
2022-09-15T11:16:13.067Z,15.50
2022-09-15T11:17:13.095Z,15.50
2022-09-15T11:18:13.215Z,15.70
2022-09-15T11:19:14.291Z,15.70
2022-09-15T11:20:13.233Z,16.00
2022-09-15T11:21:13.171Z,15.60
2022-09-15T11:22:13.320Z,15.50
2022-09-15T11:23:13.223Z,15.70
2022-09-15T11:24:19.873Z,15.70
2022-09-15T11:25:13.950Z,15.70
2022-09-15T11:26:12.922Z,15.70
2022-09-15T11:27:13.134Z,15.60
2022-09-15T11:28:13.115Z,15.70
2022-09-15T11:29:13.122Z,15.80
2022-09-15T11:30:13.253Z,15.90
2022-09-15T11:31:13.249Z,15.90
2022-09-15T11:32:13.425Z,15.70
2022-09-15T11:33:13.423Z,15.90
2022-09-15T11:34:13.516Z,16.20
2022-09-15T11:35:13.451Z,16.10
2022-09-15T11:36:13.364Z,16.10
2022-09-15T11:37:13.269Z,16.20
2022-09-15T11:38:13.613Z,16.40
2022-09-15T11:39:13.536Z,16.40
2022-09-15T11:40:13.624Z,16.50
2022-09-15T11:41:14.106Z,16.60
2022-09-15T11:42:13.262Z,17.00
2022-09-15T11:43:13.189Z,17.30
2022-09-15T11:44:16.848Z,17.70
2022-09-15T11:45:18.341Z,17.30
2022-09-15T11:46:13.409Z,17.40
2022-09-15T11:47:16.334Z,17.20
2022-09-15T11:48:13.366Z,17.40
2022-09-15T11:49:13.317Z,17.40
2022-09-15T11:50:13.384Z,17.60
2022-09-15T11:51:13.422Z,17.70
2022-09-15T11:52:13.321Z,17.40
2022-09-15T11:53:13.516Z,16.80
2022-09-15T11:54:13.566Z,17.20
2022-09-15T11:55:13.408Z,17.30
2022-09-15T11:56:15.654Z,17.40
2022-09-15T11:57:13.567Z,17.60
2022-09-15T11:58:16.334Z,17.70
2022-09-15T11:59:13.493Z,17.80
2022-09-15T12:00:13.994Z,17.80
2022-09-15T12:01:13.084Z,17.50
2022-09-15T12:02:12.983Z,17.30
2022-09-15T12:03:13.724Z,17.40
2022-09-15T12:04:14.489Z,17.10
2022-09-15T12:05:13.768Z,17.50
2022-09-15T12:06:14.124Z,17.50
2022-09-15T12:07:19.499Z,17.80
2022-09-15T12:08:13.644Z,17.20
2022-09-15T12:09:15.214Z,17.30
2022-09-15T12:10:13.404Z,17.60
2022-09-15T12:11:13.416Z,17.90
2022-09-15T12:12:13.402Z,18.60
2022-09-15T12:13:14.003Z,18.20
2022-09-15T12:14:13.351Z,18.30
2022-09-15T12:15:13.765Z,19.00
2022-09-15T12:16:14.929Z,18.90
2022-09-15T12:17:12.879Z,18.80
2022-09-15T12:18:34.427Z,18.20
2022-09-15T12:19:13.316Z,18.70
2022-09-15T12:20:13.326Z,19.10
2022-09-15T12:21:13.428Z,18.40
2022-09-15T12:22:13.644Z,18.60
2022-09-15T12:23:14.798Z,18.60
2022-09-15T12:24:15.263Z,18.90
2022-09-15T12:25:14.876Z,19.00
2022-09-15T12:26:14.327Z,18.40
2022-09-15T12:27:13.454Z,18.70
2022-09-15T12:28:13.925Z,18.30
2022-09-15T12:29:12.857Z,18.70
2022-09-15T12:30:14.343Z,19.00
2022-09-15T12:31:13.640Z,18.80
2022-09-15T12:32:13.505Z,18.60
2022-09-15T12:33:13.677Z,18.50
2022-09-15T12:34:13.528Z,18.70
2022-09-15T12:35:15.127Z,18.60
2022-09-15T12:36:13.700Z,18.80
2022-09-15T12:37:13.975Z,18.90
2022-09-15T12:38:17.982Z,18.40
2022-09-15T12:39:13.008Z,18.20
2022-09-15T12:40:13.188Z,18.30
2022-09-15T12:41:15.848Z,18.30
2022-09-15T12:42:12.958Z,18.40
2022-09-15T12:43:13.316Z,18.60
2022-09-15T12:44:13.253Z,18.10
2022-09-15T12:45:13.266Z,18.30
2022-09-15T12:46:13.326Z,18.10
2022-09-15T12:47:14.980Z,17.80
2022-09-15T12:48:13.176Z,18.00
2022-09-15T12:49:13.873Z,18.00
2022-09-15T12:50:13.026Z,18.30
2022-09-15T12:51:13.018Z,18.50
2022-09-15T12:52:13.748Z,18.90
2022-09-15T12:53:15.577Z,18.90